createdAt,value
2023-02-27T02:44:57.491Z,100562.28
2023-02-27T02:48:30.162Z,100559.28
2023-02-27T03:09:12.301Z,100581.28
2023-02-27T03:17:09.043Z,100578.81
2023-02-27T03:20:10.353Z,100593.13
2023-02-27T03:23:26.630Z,100588.41
2023-02-27T03:54:32.746Z,100639.84
2023-02-27T03:57:02.808Z,100617.81
2023-02-27T04:10:43.676Z,100639.59
2023-02-27T04:13:38.883Z,100627.78
2023-02-27T04:16:39.967Z,100650.25
2023-02-27T04:19:34.329Z,100647.84
2023-02-27T04:22:35.171Z,100650.94
2023-02-27T04:25:21.007Z,100649.16
2023-02-27T04:28:03.726Z,100654.94
2023-02-27T04:30:44.245Z,100645.16
2023-02-27T04:33:37.512Z,100658.22
2023-02-27T04:36:24.052Z,100652.16
2023-02-27T04:39:05.961Z,100645.53
2023-02-27T04:41:48.380Z,100656.91
2023-02-27T04:44:16.742Z,100648.50
2023-02-27T04:46:45.357Z,100649.41
2023-02-27T04:49:27.851Z,100650.25
2023-02-27T04:52:15.835Z,100651.97
2023-02-27T04:55:09.988Z,100643.28
2023-02-27T04:58:08.372Z,100652.09
2023-02-27T05:00:37.351Z,100654.00
2023-02-27T05:03:11.292Z,100657.19
2023-02-27T05:05:41.928Z,100660.09
2023-02-27T05:08:17.156Z,100659.03
2023-02-27T05:10:54.619Z,100654.97
2023-02-27T05:13:29.473Z,100652.31
2023-02-27T05:16:17.108Z,100641.91
2023-02-27T05:18:45.626Z,100656.69
2023-02-27T05:21:36.723Z,100657.38
2023-02-27T05:24:31.171Z,100652.44
2023-02-27T05:27:19.888Z,100646.38
2023-02-27T05:29:51.166Z,100659.63
2023-02-27T05:32:32.193Z,100664.06
2023-02-27T05:35:07.657Z,100675.66
2023-02-27T05:37:43.882Z,100671.19
2023-02-27T05:40:16.591Z,100663.38
2023-02-27T05:42:52.822Z,100674.84
2023-02-27T05:45:28.522Z,100674.66
2023-02-27T05:48:00.817Z,100675.59
2023-02-27T05:50:34.291Z,100677.47
2023-02-27T05:53:07.868Z,100677.44
2023-02-27T05:55:50.454Z,100689.41
2023-02-27T05:58:38.100Z,100681.91
2023-02-27T06:01:07.734Z,100684.41
2023-02-27T06:03:36.501Z,100683.66
2023-02-27T06:06:08.260Z,100690.25
2023-02-27T06:08:36.037Z,100700.59
2023-02-27T06:11:03.518Z,100688.91
2023-02-27T06:13:40.179Z,100696.69
2023-02-27T06:16:27.069Z,100716.97
2023-02-27T06:18:58.637Z,100718.31
2023-02-27T06:21:26.259Z,100721.91
2023-02-27T06:23:59.932Z,100716.63
2023-02-27T06:27:12.606Z,100723.81
2023-02-27T06:30:36.088Z,100738.66
2023-02-27T06:34:16.162Z,100727.53
2023-02-27T06:36:43.868Z,100738.63
2023-02-27T06:39:18.348Z,100748.25
2023-02-27T06:41:51.356Z,100749.56
2023-02-27T06:44:20.120Z,100754.03
2023-02-27T06:46:49.782Z,100750.06
2023-02-27T06:49:17.385Z,100752.84
2023-02-27T06:51:45.200Z,100777.47
2023-02-27T06:54:14.597Z,100771.19
2023-02-27T06:56:42.221Z,100774.81
2023-02-27T06:59:09.854Z,100781.19
2023-02-27T07:01:37.489Z,100792.25
2023-02-27T07:04:05.144Z,100790.94
2023-02-27T07:07:35.228Z,100801.66
2023-02-27T07:09:20.397Z,100799.75
2023-02-27T07:11:50.874Z,100805.69
2023-02-27T07:14:20.721Z,100801.66
2023-02-27T07:16:51.109Z,100807.06
2023-02-27T07:19:18.709Z,100819.38
2023-02-27T07:21:46.377Z,100812.13
2023-02-27T07:24:14.179Z,100821.25
2023-02-27T07:26:42.054Z,100824.97
2023-02-27T07:29:37.744Z,100830.72
2023-02-27T07:32:08.218Z,100828.50
2023-02-27T07:35:03.883Z,100844.97
2023-02-27T07:37:39.562Z,100837.06
2023-02-27T07:40:13.130Z,100840.75
2023-02-27T07:42:42.603Z,100854.69
2023-02-27T07:45:49.007Z,100852.38
2023-02-27T07:48:48.640Z,100862.50
2023-02-27T07:51:16.228Z,100857.97
2023-02-27T07:53:43.733Z,100858.28
2023-02-27T07:56:38.550Z,100858.31
2023-02-27T07:59:39.003Z,100859.22
2023-02-27T08:02:18.931Z,100869.03
2023-02-27T08:04:46.511Z,100871.94
2023-02-27T08:07:14.272Z,100875.56
2023-02-27T08:09:46.114Z,100864.44
2023-02-27T08:12:14.023Z,100866.59
2023-02-27T08:14:43.106Z,100880.06
2023-02-27T08:17:11.049Z,100862.31
2023-02-27T08:19:38.657Z,100875.09
2023-02-27T08:22:06.297Z,100869.13
2023-02-27T08:24:33.781Z,100877.09
2023-02-27T08:27:01.618Z,100865.69
2023-02-27T08:29:31.011Z,100887.63
2023-02-27T08:32:03.219Z,100866.34
2023-02-27T08:34:30.998Z,100863.56
2023-02-27T08:36:59.224Z,100866.53
2023-02-27T08:39:26.925Z,100874.25
2023-02-27T08:41:57.293Z,100880.34
2023-02-27T08:44:24.936Z,100889.56
2023-02-27T08:46:55.578Z,100877.44
2023-02-27T08:49:25.282Z,100888.19
2023-02-27T08:51:53.674Z,100883.03
2023-02-27T08:54:27.996Z,100897.78
2023-02-27T08:56:55.884Z,100880.63
2023-02-27T08:59:23.997Z,100882.91
2023-02-27T09:01:51.766Z,100894.38
2023-02-27T09:04:25.492Z,100886.41
2023-02-27T09:07:11.828Z,100899.94
2023-02-27T09:09:40.551Z,100896.78
2023-02-27T09:12:08.548Z,100899.69
2023-02-27T09:14:36.776Z,100891.84
2023-02-27T09:17:16.140Z,100904.22
2023-02-27T09:19:44.411Z,100895.38
2023-02-27T09:22:12.107Z,100905.13
2023-02-27T09:24:39.726Z,100908.91
2023-02-27T09:27:12.402Z,100895.06
2023-02-27T09:29:45.867Z,100898.53
2023-02-27T09:32:14.808Z,100910.03
2023-02-27T09:34:42.477Z,100899.78
2023-02-27T09:37:16.038Z,100921.50
2023-02-27T09:39:46.005Z,100910.81
2023-02-27T09:42:19.455Z,100929.47
2023-02-27T09:45:11.276Z,100926.50
2023-02-27T09:47:42.509Z,100920.63
2023-02-27T09:50:39.317Z,100931.25
2023-02-27T09:53:58.770Z,100928.81
2023-02-27T10:00:27.552Z,100923.97
2023-02-27T10:03:31.407Z,100947.22
2023-02-27T10:06:13.698Z,100943.97
2023-02-27T10:09:32.359Z,100947.06
2023-02-27T10:12:31.439Z,100936.94
2023-02-27T10:15:19.106Z,100936.34
2023-02-27T10:17:57.018Z,100936.47
2023-02-27T10:20:32.468Z,100944.91
2023-02-27T10:23:05.516Z,100946.06
2023-02-27T10:25:40.157Z,100932.16
2023-02-27T10:28:16.176Z,100939.41
2023-02-27T10:30:48.318Z,100937.69
2023-02-27T10:33:33.875Z,100950.44
2023-02-27T10:36:03.577Z,100938.19
2023-02-27T10:38:50.013Z,100949.19
2023-02-27T10:41:30.919Z,100941.91
2023-02-27T10:44:11.110Z,100933.59
2023-02-27T10:46:41.054Z,100942.53
2023-02-27T10:49:24.968Z,100938.63
2023-02-27T10:52:11.284Z,100942.09
2023-02-27T10:54:58.978Z,100954.59
2023-02-27T10:57:42.855Z,100951.16
2023-02-27T11:00:44.238Z,100949.22
2023-02-27T11:04:01.111Z,100945.75
2023-02-27T11:06:47.934Z,100948.53
2023-02-27T11:09:33.804Z,100931.88
2023-02-27T11:16:43.964Z,100942.34
2023-02-27T11:26:53.935Z,100916.63
2023-02-27T11:30:52.701Z,100919.44
2023-02-27T11:37:18.969Z,100907.06
2023-02-27T11:40:37.933Z,100916.09
2023-02-27T11:43:17.162Z,100899.44
2023-02-27T11:46:17.649Z,100905.47
2023-02-27T11:53:56.808Z,100899.47
2023-02-27T12:04:48.056Z,100889.66
2023-02-27T12:13:43.358Z,100892.44
2023-02-27T12:16:23.656Z,100889.84
2023-02-27T12:26:30.903Z,100880.22
2023-02-27T12:36:43.998Z,100877.56
2023-02-27T13:01:52.265Z,100879.31
2023-02-27T13:09:33.314Z,100881.94
2023-02-27T13:20:43.238Z,100880.16
2023-02-27T13:27:25.682Z,100873.19
2023-02-27T13:30:59.127Z,100882.78
2023-02-27T13:33:41.479Z,100874.00
2023-02-27T13:36:24.552Z,100878.38
2023-02-27T13:39:53.112Z,100883.69
2023-02-27T13:42:49.919Z,100884.28
2023-02-27T13:49:45.080Z,100893.31
2023-02-27T13:53:08.779Z,100903.84
2023-02-27T13:55:37.146Z,100898.56
2023-02-27T14:01:57.376Z,100908.22
2023-02-27T14:04:33.168Z,100919.63
2023-02-27T14:08:04.725Z,100921.38
2023-02-27T14:10:47.076Z,100924.84
2023-02-27T14:13:46.597Z,100929.09
2023-02-27T14:21:36.040Z,100927.50
2023-02-27T14:24:44.848Z,100935.13
2023-02-27T14:28:11.571Z,100942.13
2023-02-27T14:31:19.676Z,100928.16
2023-02-27T14:34:08.909Z,100945.78
2023-02-27T14:36:54.773Z,100951.59
2023-02-27T14:39:28.377Z,100942.31
2023-02-27T14:42:59.688Z,100944.03
2023-02-27T14:46:10.262Z,100944.75
2023-02-27T14:49:12.671Z,100943.13
2023-02-27T14:51:40.641Z,100951.91
2023-02-27T14:54:55.107Z,100954.59
2023-02-27T15:02:02.117Z,100946.66
2023-02-27T15:05:07.910Z,100952.72
2023-02-27T15:08:29.431Z,100960.56
2023-02-27T15:11:01.002Z,100957.75
2023-02-27T15:13:34.511Z,100963.75
2023-02-27T15:16:35.773Z,100953.13
2023-02-27T15:19:15.676Z,100965.63
2023-02-27T15:22:11.270Z,100959.41
2023-02-27T15:25:10.642Z,100966.38
2023-02-27T15:28:17.808Z,100955.19
2023-02-27T15:30:53.240Z,100950.59
2023-02-27T15:33:31.218Z,100963.72
2023-02-27T15:35:59.726Z,100958.53
2023-02-27T15:38:29.383Z,100977.13
2023-02-27T15:40:58.707Z,100971.09
2023-02-27T15:43:28.314Z,100967.19
2023-02-27T15:46:01.047Z,100973.38
2023-02-27T15:49:03.556Z,100978.00
2023-02-27T15:51:31.222Z,100976.34
2023-02-27T15:54:59.299Z,100993.88
2023-02-27T15:57:52.966Z,100997.31
2023-02-27T16:00:35.317Z,101006.97
2023-02-27T16:03:10.925Z,101004.16
2023-02-27T16:05:44.955Z,101008.47
2023-02-27T16:09:15.428Z,101000.53
2023-02-27T16:11:43.209Z,101013.72
2023-02-27T16:14:47.777Z,101022.69
2023-02-27T16:17:37.231Z,101017.31
2023-02-27T16:20:55.962Z,101024.09
2023-02-27T16:23:33.708Z,101019.53
2023-02-27T16:26:58.951Z,101036.59
2023-02-27T16:29:51.836Z,101036.69
2023-02-27T16:33:47.150Z,101036.59
2023-02-27T16:40:42.562Z,101051.63
2023-02-27T16:43:26.474Z,101050.66
2023-02-27T16:45:58.821Z,101053.50
2023-02-27T16:48:28.947Z,101057.94
2023-02-27T16:50:58.704Z,101069.19
2023-02-27T16:53:29.970Z,101061.78
2023-02-27T16:55:58.271Z,101062.53
2023-02-27T16:58:26.022Z,101065.34
2023-02-27T17:00:53.773Z,101077.41
2023-02-27T17:03:56.354Z,101079.16
2023-02-27T17:06:35.266Z,101073.69
2023-02-27T17:09:12.963Z,101078.69
2023-02-27T17:12:11.941Z,101089.41
2023-02-27T17:14:59.274Z,101082.28
2023-02-27T17:17:47.719Z,101087.31
2023-02-27T17:21:03.677Z,101097.09
2023-02-27T17:24:02.933Z,101104.75
2023-02-27T17:26:39.908Z,101110.34
2023-02-27T17:29:21.033Z,101100.06
2023-02-27T17:31:59.564Z,101101.84
2023-02-27T17:35:45.426Z,101102.78
2023-02-27T17:39:14.318Z,101106.56
2023-02-27T17:42:38.418Z,101124.66
2023-02-27T17:45:37.622Z,101119.81
2023-02-27T17:51:41.331Z,101129.56
2023-02-27T17:54:09.060Z,101129.00
2023-02-27T17:56:39.704Z,101134.88
2023-02-27T17:59:14.633Z,101149.69
2023-02-27T18:02:32.776Z,101141.53
2023-02-27T18:05:55.472Z,101140.97
2023-02-27T18:09:12.385Z,101157.34
2023-02-27T18:12:08.287Z,101159.75
2023-02-27T18:14:39.433Z,101152.97
2023-02-27T18:17:12.674Z,101144.63
2023-02-27T18:22:37.382Z,101148.91
2023-02-27T18:25:10.657Z,101157.38
2023-02-27T18:30:35.631Z,101175.66
2023-02-27T18:33:47.713Z,101177.94
2023-02-27T18:36:20.625Z,101186.28
2023-02-27T18:39:01.046Z,101187.06
2023-02-27T18:41:49.472Z,101174.81
2023-02-27T18:44:39.043Z,101175.72
2023-02-27T18:47:13.429Z,101166.13
2023-02-27T18:49:41.198Z,101182.34
2023-02-27T18:52:08.879Z,101168.16
2023-02-27T18:54:36.532Z,101182.00
2023-02-27T18:57:04.864Z,101177.56
2023-02-27T19:00:16.918Z,101189.38
2023-02-27T19:02:45.159Z,101193.66
2023-02-27T19:05:20.775Z,101193.03
2023-02-27T19:07:55.878Z,101189.53
2023-02-27T19:10:28.561Z,101198.25
2023-02-27T19:12:56.901Z,101185.88
2023-02-27T19:15:24.478Z,101184.97
2023-02-27T19:17:52.160Z,101188.38
2023-02-27T19:20:21.674Z,101198.09
2023-02-27T19:22:53.599Z,101198.00
2023-02-27T19:25:27.471Z,101207.63
2023-02-27T19:27:58.186Z,101197.28
2023-02-27T19:30:26.057Z,101199.38
2023-02-27T19:32:59.650Z,101197.63
2023-02-27T19:35:31.163Z,101210.13
2023-02-27T19:38:06.076Z,101206.84
2023-02-27T19:40:41.136Z,101205.88
2023-02-27T19:43:08.770Z,101216.69
2023-02-27T19:45:42.093Z,101212.56
2023-02-27T19:48:15.237Z,101224.41
2023-02-27T19:51:07.980Z,101221.38
2023-02-27T19:54:18.140Z,101233.47
2023-02-27T19:57:10.437Z,101233.63
2023-02-27T19:59:58.579Z,101230.84
2023-02-27T20:02:46.840Z,101228.81
2023-02-27T20:05:20.588Z,101224.75
2023-02-27T20:07:48.573Z,101235.16
2023-02-27T20:10:29.384Z,101236.81
2023-02-27T20:12:58.004Z,101237.53
2023-02-27T20:15:25.558Z,101236.25
2023-02-27T20:17:53.162Z,101242.13
2023-02-27T20:20:23.122Z,101244.50
2023-02-27T20:22:52.474Z,101242.44
2023-02-27T20:25:20.195Z,101238.78
2023-02-27T20:27:48.068Z,101248.16
2023-02-27T20:30:15.826Z,101251.75
2023-02-27T20:32:48.138Z,101249.31
2023-02-27T20:35:16.018Z,101246.72
2023-02-27T20:37:49.765Z,101243.47
2023-02-27T20:40:44.589Z,101252.19
2023-02-27T20:43:15.395Z,101266.56
2023-02-27T20:46:02.935Z,101252.94
2023-02-27T20:48:31.009Z,101265.97
2023-02-27T20:51:57.844Z,101275.09
2023-02-27T20:56:07.281Z,101281.03
2023-02-27T20:59:41.226Z,101284.78
2023-02-27T21:02:12.623Z,101272.47
2023-02-27T21:05:35.986Z,101283.97
2023-02-27T21:08:28.137Z,101277.09
2023-02-27T21:11:19.767Z,101278.03
2023-02-27T21:13:47.474Z,101287.25
2023-02-27T21:16:16.627Z,101282.50
2023-02-27T21:18:45.059Z,101291.66
2023-02-27T21:21:18.544Z,101291.56
2023-02-27T21:23:46.162Z,101293.13
2023-02-27T21:26:39.241Z,101283.09
2023-02-27T21:29:13.185Z,101288.72
2023-02-27T21:31:42.418Z,101292.09
2023-02-27T21:34:14.230Z,101275.47
2023-02-27T21:36:43.701Z,101283.84
2023-02-27T21:39:31.480Z,101278.53
2023-02-27T21:42:02.120Z,101285.22
2023-02-27T21:44:29.904Z,101280.47
2023-02-27T21:46:59.305Z,101281.34
2023-02-27T21:49:28.898Z,101289.38
2023-02-27T21:51:58.599Z,101290.28
2023-02-27T21:54:26.381Z,101286.88
2023-02-27T21:56:54.076Z,101290.28
2023-02-27T21:59:21.822Z,101287.13
2023-02-27T22:01:49.565Z,101286.94
2023-02-27T22:04:19.095Z,101276.72
2023-02-27T22:06:48.180Z,101291.19
2023-02-27T22:12:52.495Z,101292.38
2023-02-27T22:15:44.598Z,101304.72
2023-02-27T22:18:29.199Z,101300.69
2023-02-27T22:21:28.895Z,101309.69
2023-02-27T22:23:57.797Z,101310.69
2023-02-27T22:26:28.282Z,101308.81
2023-02-27T22:28:57.406Z,101314.19
2023-02-27T22:34:47.878Z,101301.34
2023-02-27T22:37:17.602Z,101308.78
2023-02-27T22:46:17.448Z,101311.47
2023-02-27T22:48:45.082Z,101319.09
2023-02-27T22:51:14.617Z,101321.50
2023-02-27T22:53:43.558Z,101331.22
2023-02-27T22:56:16.251Z,101335.28
2023-02-27T22:58:45.322Z,101330.78
2023-02-27T23:01:14.510Z,101342.16
2023-02-27T23:03:43.209Z,101334.78
2023-02-27T23:06:14.411Z,101343.38
2023-02-27T23:08:42.519Z,101338.72
2023-02-27T23:11:11.460Z,101350.84
2023-02-27T23:13:39.099Z,101335.00
2023-02-27T23:16:14.078Z,101339.75
2023-02-27T23:18:46.090Z,101346.34
2023-02-27T23:21:16.138Z,101350.19
2023-02-27T23:23:44.457Z,101348.72
2023-02-27T23:26:12.789Z,101356.94
2023-02-27T23:28:40.683Z,101357.34
2023-02-27T23:31:09.688Z,101345.25
2023-02-27T23:33:37.332Z,101343.13
2023-02-27T23:36:05.229Z,101341.84
2023-02-27T23:38:32.829Z,101352.66
2023-02-27T23:41:06.560Z,101353.47
2023-02-27T23:43:53.245Z,101347.53
2023-02-27T23:46:23.691Z,101346.50
2023-02-27T23:48:51.236Z,101347.91
2023-02-27T23:51:18.705Z,101345.97
2023-02-27T23:53:46.317Z,101348.44
2023-02-27T23:56:16.879Z,101365.38
2023-02-27T23:58:45.709Z,101353.84
